Time;durP1;ratioP1;P1;durP2;ratioP2;P2;SDS_P1;SDS_P2;PMS_P1;PMS_P2;Temp;Humidity;BMP_temperature;BMP_pressure;BME280_temperature;BME280_humidity;BME280_pressure;Samples;Min_cycle;Max_cycle;Signal;HPM_P1;HPM_P2
2022/03/13 00:00:59;;;;;;;1.50;0.60;;;19.80;54.20;;;;;;5052635;28;20021;-64
2022/03/13 00:03:26;;;;;;;1.08;0.52;;;19.90;54.40;;;;;;5029706;28;20295;-64
2022/03/13 00:05:52;;;;;;;1.00;0.45;;;19.80;54.30;;;;;;5053363;28;20490;-64
2022/03/13 00:08:29;;;;;;;0.73;0.40;;;19.80;54.30;;;;;;5053571;28;20040;-64
2022/03/13 00:11:06;;;;;;;1.08;0.50;;;19.80;54.40;;;;;;5053188;28;20121;-64
2022/03/13 00:13:37;;;;;;;1.90;0.70;;;19.80;54.40;;;;;;5053424;28;20083;-64
2022/03/13 00:16:09;;;;;;;1.40;0.70;;;19.80;54.50;;;;;;5053509;28;20056;-64
2022/03/13 00:18:36;;;;;;;1.05;0.57;;;19.80;54.50;;;;;;5052303;28;20499;-64
2022/03/13 00:21:03;;;;;;;4.85;0.60;;;19.70;54.40;;;;;;5051740;28;20438;-64
2022/03/13 00:23:30;;;;;;;1.70;0.70;;;19.70;54.40;;;;;;5052983;28;20531;-64
2022/03/13 00:25:56;;;;;;;1.80;0.60;;;19.70;54.50;;;;;;5053009;28;20104;-64
2022/03/13 00:28:21;;;;;;;1.52;0.60;;;19.70;54.50;;;;;;5052544;28;20096;-64
2022/03/13 00:30:47;;;;;;;1.58;0.60;;;19.70;54.50;;;;;;5052843;28;20431;-64
2022/03/13 00:33:13;;;;;;;1.38;0.80;;;19.70;54.60;;;;;;5053011;28;20024;-64
2022/03/13 00:35:39;;;;;;;1.08;0.50;;;19.70;54.60;;;;;;5034797;28;20033;-64
2022/03/13 00:38:06;;;;;;;0.82;0.40;;;19.70;54.60;;;;;;5052967;28;20499;-64
2022/03/13 00:40:32;;;;;;;5.60;0.80;;;19.70;54.60;;;;;;5052690;28;20462;-64
2022/03/13 00:42:58;;;;;;;1.92;0.70;;;19.70;54.60;;;;;;5041901;28;20104;-64
2022/03/13 00:45:24;;;;;;;0.65;0.40;;;19.70;54.60;;;;;;5032989;28;20109;-64
2022/03/13 00:47:49;;;;;;;2.28;0.65;;;19.70;54.70;;;;;;5032607;28;20052;-64
2022/03/13 00:50:15;;;;;;;1.00;0.43;;;19.70;54.70;;;;;;5048262;28;20026;-64
2022/03/13 00:52:41;;;;;;;0.70;0.30;;;19.70;54.70;;;;;;5032731;28;20496;-64
2022/03/13 00:55:07;;;;;;;1.00;0.47;;;19.70;54.80;;;;;;5032613;28;20030;-64
2022/03/13 00:57:33;;;;;;;1.33;0.57;;;19.70;54.80;;;;;;5032785;28;20050;-64
2022/03/13 00:59:59;;;;;;;1.00;0.50;;;19.70;54.80;;;;;;5032632;28;20021;-64
2022/03/13 01:02:24;;;;;;;1.67;0.40;;;19.70;54.90;;;;;;5032510;28;20500;-64
2022/03/13 01:04:50;;;;;;;0.90;0.50;;;19.60;54.80;;;;;;5032303;28;20039;-64
2022/03/13 01:07:16;;;;;;;1.45;0.60;;;19.60;54.80;;;;;;5032706;28;20083;-64
2022/03/13 01:09:42;;;;;;;0.75;0.40;;;19.60;54.90;;;;;;5032508;28;20025;-64
2022/03/13 01:12:08;;;;;;;1.15;0.50;;;19.60;54.90;;;;;;5032425;28;20060;-64
2022/03/13 01:14:35;;;;;;;1.00;0.50;;;19.60;55.00;;;;;;5032427;28;20033;-64
2022/03/13 01:17:08;;;;;;;1.35;0.60;;;19.60;55.00;;;;;;5032285;28;20030;-64
2022/03/13 01:19:33;;;;;;;0.50;0.40;;;19.60;55.10;;;;;;5047536;28;20443;-64
2022/03/13 01:21:59;;;;;;;1.40;0.47;;;19.60;55.10;;;;;;5032233;28;20111;-64
2022/03/13 01:24:46;;;;;;;1.80;0.57;;;19.60;55.20;;;;;;5051750;28;20090;-64
2022/03/13 01:27:13;;;;;;;1.88;0.50;;;19.60;55.30;;;;;;5032554;28;20106;-64
2022/03/13 01:29:39;;;;;;;0.63;0.40;;;19.60;55.30;;;;;;5014656;28;20517;-64
2022/03/13 01:32:07;;;;;;;1.15;0.45;;;19.50;55.20;;;;;;5032054;28;20033;-64
2022/03/13 01:34:35;;;;;;;0.90;0.50;;;19.60;55.20;;;;;;5032157;28;20044;-64
2022/03/13 01:37:08;;;;;;;3.60;0.35;;;19.50;55.20;;;;;;5032171;28;20059;-64
2022/03/13 01:39:33;;;;;;;0.47;0.30;;;19.50;55.20;;;;;;5035722;28;20017;-64
2022/03/13 01:41:59;;;;;;;0.60;0.50;;;19.50;55.20;;;;;;5037612;28;20029;-64
2022/03/13 01:44:25;;;;;;;0.82;0.35;;;19.50;55.20;;;;;;5055093;28;20108;-64
2022/03/13 01:46:51;;;;;;;1.85;0.63;;;19.50;55.20;;;;;;5054788;28;20055;-64
2022/03/13 01:49:17;;;;;;;1.45;0.55;;;19.50;55.20;;;;;;5056302;28;20025;-64
2022/03/13 01:51:43;;;;;;;2.25;0.40;;;19.50;55.20;;;;;;5055127;28;20559;-64
2022/03/13 01:54:10;;;;;;;1.77;0.43;;;19.50;55.20;;;;;;5055713;28;20112;-64
2022/03/13 01:56:36;;;;;;;0.52;0.40;;;19.50;55.30;;;;;;5056286;28;20025;-64
2022/03/13 01:59:02;;;;;;;1.15;0.60;;;19.50;55.30;;;;;;5055800;28;20495;-64
2022/03/13 02:01:28;;;;;;;1.95;0.50;;;19.50;55.30;;;;;;5055797;28;20017;-64
2022/03/13 02:03:53;;;;;;;1.08;0.50;;;19.50;55.40;;;;;;5055981;28;20057;-64
2022/03/13 02:06:20;;;;;;;1.60;0.50;;;19.50;55.50;;;;;;5054631;28;20033;-64
2022/03/13 02:08:46;;;;;;;1.35;0.50;;;19.50;55.50;;;;;;5054656;28;20029;-64
2022/03/13 02:11:15;;;;;;;1.00;0.43;;;19.50;55.60;;;;;;5055789;28;20544;-64
2022/03/13 02:13:41;;;;;;;0.90;0.40;;;19.50;55.60;;;;;;5055656;28;20112;-64
2022/03/13 02:16:07;;;;;;;1.05;0.47;;;19.40;55.60;;;;;;5037724;28;20052;-64
2022/03/13 02:18:32;;;;;;;0.60;0.35;;;19.50;55.60;;;;;;5055648;28;20436;-64
2022/03/13 02:20:58;;;;;;;2.05;0.60;;;19.40;55.60;;;;;;5055506;28;20021;-64
2022/03/13 02:23:30;;;;;;;1.73;0.40;;;19.50;55.70;;;;;;5055449;28;20123;-64
2022/03/13 02:26:01;;;;;;;0.65;0.52;;;19.50;55.70;;;;;;5054214;28;20138;-64
2022/03/13 02:28:28;;;;;;;2.95;0.90;;;19.40;55.60;;;;;;5037632;28;20066;-64
2022/03/13 02:30:58;;;;;;;0.77;0.47;;;19.40;55.70;;;;;;5055131;28;20115;-64
2022/03/13 02:33:24;;;;;;;1.70;0.45;;;19.40;55.70;;;;;;5037811;28;20028;-64
2022/03/13 02:36:03;;;;;;;1.38;0.60;;;19.40;55.80;;;;;;5055213;28;20027;-64
2022/03/13 02:38:29;;;;;;;0.90;0.57;;;19.40;55.90;;;;;;5039191;28;20045;-64
2022/03/13 02:40:55;;;;;;;1.42;0.50;;;19.40;55.80;;;;;;5037284;28;20052;-64
2022/03/13 02:43:21;;;;;;;1.77;0.45;;;19.40;55.90;;;;;;5037345;28;20024;-64
2022/03/13 02:45:47;;;;;;;0.98;0.40;;;19.40;55.90;;;;;;5037132;28;20025;-64
2022/03/13 02:48:12;;;;;;;0.80;0.50;;;19.40;55.90;;;;;;5037222;28;20021;-64
2022/03/13 02:50:38;;;;;;;0.70;0.40;;;19.40;55.90;;;;;;5054326;28;20108;-64
2022/03/13 02:53:04;;;;;;;0.68;0.50;;;19.30;55.90;;;;;;5054930;28;20545;-64
2022/03/13 02:55:30;;;;;;;1.23;0.60;;;19.30;55.90;;;;;;5054741;28;20021;-64
2022/03/13 02:57:56;;;;;;;1.15;0.60;;;19.30;56.00;;;;;;5037054;28;20051;-64
2022/03/13 03:00:23;;;;;;;1.40;0.60;;;19.30;56.00;;;;;;5036909;28;20533;-64
2022/03/13 03:02:49;;;;;;;1.20;0.60;;;19.30;56.00;;;;;;5037047;28;20104;-64
2022/03/13 03:05:14;;;;;;;1.55;0.50;;;19.30;56.10;;;;;;5054489;28;20108;-64
2022/03/13 03:07:40;;;;;;;0.93;0.40;;;19.30;56.10;;;;;;5054846;28;20475;-64
2022/03/13 03:10:10;;;;;;;1.05;0.50;;;19.30;56.10;;;;;;5054450;28;20021;-64
2022/03/13 03:12:36;;;;;;;1.58;0.60;;;19.30;56.10;;;;;;5054766;28;20017;-64
2022/03/13 03:15:02;;;;;;;1.63;0.50;;;19.30;56.10;;;;;;5054209;28;20518;-64
2022/03/13 03:17:27;;;;;;;1.48;0.50;;;19.30;56.20;;;;;;5054535;28;20024;-64
2022/03/13 03:19:53;;;;;;;0.70;0.40;;;19.30;56.20;;;;;;5054481;28;20025;-64
2022/03/13 03:22:18;;;;;;;1.75;0.50;;;19.30;57.20;;;;;;5036406;28;20029;-64
2022/03/13 03:24:45;;;;;;;0.50;0.47;;;19.30;56.20;;;;;;5053070;28;20044;-64
2022/03/13 03:27:11;;;;;;;0.75;0.35;;;19.30;56.30;;;;;;5054384;28;20040;-64
2022/03/13 03:29:37;;;;;;;1.27;0.63;;;19.30;56.30;;;;;;5054062;28;20029;-64
2022/03/13 03:32:03;;;;;;;1.20;0.70;;;19.30;56.30;;;;;;5054142;28;20040;-64
2022/03/13 03:34:28;;;;;;;1.55;0.50;;;19.30;56.30;;;;;;5054264;28;20025;-64
2022/03/13 03:36:56;;;;;;;0.68;0.40;;;19.30;56.30;;;;;;5054169;28;20044;-64
2022/03/13 03:39:22;;;;;;;1.48;0.60;;;19.20;56.30;;;;;;5053997;28;20021;-64
2022/03/13 03:41:48;;;;;;;0.80;0.47;;;19.20;56.30;;;;;;5051598;28;20021;-64
2022/03/13 03:44:14;;;;;;;0.47;0.35;;;19.20;56.40;;;;;;5034025;28;20040;-64
2022/03/13 03:46:41;;;;;;;0.70;0.35;;;19.20;56.40;;;;;;5034116;28;20104;-64
2022/03/13 03:49:06;;;;;;;2.10;0.50;;;19.20;56.40;;;;;;5034013;28;20056;-64
2022/03/13 03:51:32;;;;;;;1.55;0.40;;;19.20;56.50;;;;;;5034158;28;20057;-64
2022/03/13 03:53:58;;;;;;;1.33;0.50;;;19.20;56.50;;;;;;5033821;28;20025;-64
2022/03/13 03:56:23;;;;;;;1.13;0.47;;;19.20;56.50;;;;;;5048934;28;20120;-64
2022/03/13 03:58:49;;;;;;;2.65;0.40;;;19.20;56.50;;;;;;5033947;28;20087;-64
2022/03/13 04:01:15;;;;;;;1.80;0.60;;;19.20;56.60;;;;;;5032999;28;20013;-64
2022/03/13 04:03:41;;;;;;;0.80;0.40;;;19.20;56.60;;;;;;5033501;28;20022;-64
2022/03/13 04:06:07;;;;;;;0.40;0.40;;;19.20;56.60;;;;;;5033496;28;20033;-64
2022/03/13 04:08:33;;;;;;;1.33;0.40;;;19.20;56.60;;;;;;5033700;28;20451;-64
2022/03/13 04:11:00;;;;;;;2.42;0.52;;;19.20;56.60;;;;;;5033341;28;20033;-64
2022/03/13 04:13:26;;;;;;;0.77;0.50;;;19.20;56.60;;;;;;5033485;28;20480;-64
2022/03/13 04:15:52;;;;;;;1.10;0.52;;;19.20;56.70;;;;;;5048937;28;20017;-64
2022/03/13 04:18:18;;;;;;;1.15;0.40;;;19.20;56.70;;;;;;5033367;28;20026;-64
2022/03/13 04:20:44;;;;;;;1.58;0.70;;;19.20;56.70;;;;;;5048833;28;20500;-64
2022/03/13 04:23:10;;;;;;;0.82;0.60;;;19.20;56.70;;;;;;5042313;28;20049;-64
2022/03/13 04:25:37;;;;;;;1.00;0.50;;;19.20;56.80;;;;;;5052836;28;20108;-64
2022/03/13 04:28:04;;;;;;;0.80;0.40;;;19.20;56.90;;;;;;5018850;28;20441;-64
2022/03/13 04:30:30;;;;;;;1.15;0.40;;;19.20;56.80;;;;;;5053249;28;20027;-64
2022/03/13 04:32:57;;;;;;;0.85;0.35;;;19.20;56.80;;;;;;5052872;28;20021;-64
2022/03/13 04:35:23;;;;;;;0.93;0.50;;;19.10;56.90;;;;;;5053021;28;20047;-64
2022/03/13 04:37:49;;;;;;;0.40;0.40;;;19.10;56.80;;;;;;5053092;28;20021;-64
2022/03/13 04:40:15;;;;;;;1.27;0.70;;;19.10;56.80;;;;;;5052680;28;20017;-64
2022/03/13 04:42:40;;;;;;;1.13;0.60;;;19.10;56.90;;;;;;5052820;28;20468;-64
2022/03/13 04:45:06;;;;;;;0.95;0.38;;;19.10;56.90;;;;;;5052830;28;20058;-64
2022/03/13 04:47:33;;;;;;;1.08;0.60;;;19.10;56.90;;;;;;5052685;28;20055;-64
2022/03/13 04:49:59;;;;;;;1.38;0.60;;;19.10;56.90;;;;;;5053029;28;20017;-64
2022/03/13 04:52:25;;;;;;;1.25;0.73;;;19.10;56.90;;;;;;5052824;28;20037;-64
2022/03/13 04:54:51;;;;;;;1.52;0.52;;;19.10;56.90;;;;;;5052426;28;20024;-64
2022/03/13 04:57:17;;;;;;;1.42;0.65;;;19.10;57.00;;;;;;5052625;28;20020;-64
2022/03/13 04:59:43;;;;;;;3.10;0.40;;;19.10;57.00;;;;;;5052547;28;20024;-64
2022/03/13 05:02:09;;;;;;;1.55;0.50;;;19.10;57.00;;;;;;5052565;28;20024;-64
2022/03/13 05:04:34;;;;;;;1.17;0.50;;;19.10;57.10;;;;;;5052654;28;20021;-64
2022/03/13 05:07:00;;;;;;;0.98;0.50;;;19.10;57.10;;;;;;5052476;28;20107;-64
2022/03/13 05:09:26;;;;;;;1.67;0.40;;;19.10;57.10;;;;;;5052046;28;20108;-64
2022/03/13 05:11:52;;;;;;;1.45;0.60;;;19.10;57.20;;;;;;5052520;28;20095;-64
2022/03/13 05:14:18;;;;;;;2.53;0.47;;;19.00;57.10;;;;;;5052030;28;20192;-64
2022/03/13 05:16:43;;;;;;;1.50;1.02;;;19.10;57.20;;;;;;5052245;28;20487;-64
2022/03/13 05:19:09;;;;;;;1.02;0.50;;;19.00;57.20;;;;;;5052576;28;20426;-64
2022/03/13 05:21:36;;;;;;;1.08;0.30;;;19.00;57.20;;;;;;5052244;28;20057;-64
2022/03/13 05:24:02;;;;;;;0.77;0.50;;;19.00;57.20;;;;;;5051872;28;20067;-64
2022/03/13 05:26:28;;;;;;;1.10;0.47;;;19.00;57.20;;;;;;5037668;28;20488;-64
2022/03/13 05:28:54;;;;;;;0.65;0.28;;;19.00;57.20;;;;;;5031005;28;20453;-64
2022/03/13 05:31:19;;;;;;;0.55;0.30;;;19.00;57.20;;;;;;5032270;28;20440;-64
2022/03/13 05:33:45;;;;;;;0.50;0.20;;;19.00;57.20;;;;;;5032305;28;20030;-64
2022/03/13 05:36:11;;;;;;;1.88;0.45;;;19.00;57.20;;;;;;5032155;28;20021;-64
2022/03/13 05:38:37;;;;;;;2.67;0.50;;;19.00;57.30;;;;;;5030710;28;20021;-64
2022/03/13 05:41:04;;;;;;;2.65;0.45;;;19.00;57.30;;;;;;5032265;28;20072;-64
2022/03/13 05:43:31;;;;;;;0.93;0.50;;;19.00;57.30;;;;;;5046908;28;20040;-64
2022/03/13 05:45:56;;;;;;;1.25;0.40;;;19.00;58.30;;;;;;5052113;28;20107;-64
2022/03/13 05:48:22;;;;;;;0.80;0.60;;;19.00;57.40;;;;;;5051904;28;20569;-64
2022/03/13 05:50:48;;;;;;;0.70;0.32;;;19.00;57.40;;;;;;5052167;28;20154;-64
2022/03/13 05:53:14;;;;;;;0.98;0.40;;;19.00;57.40;;;;;;5051747;28;20017;-64
2022/03/13 05:55:40;;;;;;;0.80;0.40;;;19.00;57.40;;;;;;5050902;28;20028;-64
2022/03/13 05:58:05;;;;;;;1.92;0.80;;;18.90;57.40;;;;;;5051951;28;20503;-64
2022/03/13 06:00:32;;;;;;;0.60;0.38;;;19.00;57.40;;;;;;5051934;28;20025;-64
2022/03/13 06:02:58;;;;;;;1.02;0.40;;;18.90;57.40;;;;;;5051903;28;20025;-64
2022/03/13 06:05:24;;;;;;;1.02;0.50;;;19.00;57.50;;;;;;5050745;28;20075;-64
2022/03/13 06:07:49;;;;;;;2.25;0.57;;;18.90;57.40;;;;;;5040937;28;20056;-64
2022/03/13 06:10:15;;;;;;;2.40;0.45;;;18.90;57.50;;;;;;5033694;28;20098;-64
2022/03/13 06:12:41;;;;;;;0.82;0.47;;;18.90;57.50;;;;;;5051658;28;20025;-64
2022/03/13 06:15:08;;;;;;;0.98;0.40;;;18.90;57.50;;;;;;5036433;28;20472;-64
2022/03/13 06:17:38;;;;;;;1.23;0.60;;;18.90;57.50;;;;;;5031750;28;20025;-64
2022/03/13 06:20:07;;;;;;;1.40;0.47;;;18.90;57.60;;;;;;5031958;28;20030;-64
2022/03/13 06:22:33;;;;;;;1.58;0.52;;;18.90;57.70;;;;;;5035294;28;20033;-64
2022/03/13 06:24:59;;;;;;;0.98;0.60;;;18.90;57.60;;;;;;5052084;28;20433;-64
2022/03/13 06:27:24;;;;;;;4.78;0.60;;;18.90;57.60;;;;;;5038843;28;20083;-64
2022/03/13 06:29:50;;;;;;;0.80;0.47;;;18.90;57.60;;;;;;5035639;28;20495;-64
2022/03/13 06:32:15;;;;;;;2.42;0.60;;;18.90;57.70;;;;;;5017532;28;20466;-64
2022/03/13 06:34:41;;;;;;;0.68;0.50;;;18.90;57.60;;;;;;5035451;28;20587;-64
2022/03/13 06:37:08;;;;;;;3.67;0.68;;;18.90;57.60;;;;;;5035191;28;20514;-64
2022/03/13 06:39:34;;;;;;;1.15;0.57;;;18.90;57.60;;;;;;5035294;28;20021;-64
2022/03/13 06:41:59;;;;;;;1.92;0.45;;;18.90;57.70;;;;;;5037858;28;20025;-64
2022/03/13 06:44:25;;;;;;;1.17;0.68;;;18.90;57.70;;;;;;5055244;28;20510;-64
2022/03/13 06:46:51;;;;;;;1.08;0.30;;;18.90;57.70;;;;;;5055059;28;20025;-64
2022/03/13 06:49:16;;;;;;;0.98;0.35;;;18.90;57.80;;;;;;5055062;28;20063;-64
2022/03/13 06:51:42;;;;;;;1.20;0.60;;;18.90;57.70;;;;;;5054842;28;20029;-64
2022/03/13 06:54:10;;;;;;;1.67;0.60;;;18.90;57.80;;;;;;5054970;28;20060;-64
2022/03/13 06:56:38;;;;;;;0.65;0.43;;;18.90;57.80;;;;;;5053730;28;20017;-64
2022/03/13 06:59:04;;;;;;;1.42;0.50;;;18.90;57.90;;;;;;5054933;28;20495;-64
2022/03/13 07:01:30;;;;;;;1.38;0.50;;;18.90;57.90;;;;;;5054704;28;20024;-64
2022/03/13 07:03:56;;;;;;;3.30;0.57;;;18.90;57.90;;;;;;5054847;28;20017;-64
2022/03/13 07:06:22;;;;;;;2.15;0.47;;;18.90;57.80;;;;;;5051393;28;20044;-64
2022/03/13 07:08:47;;;;;;;1.40;0.57;;;18.90;57.90;;;;;;5044017;28;20028;-64
2022/03/13 07:11:15;;;;;;;1.40;0.40;;;18.90;57.90;;;;;;5052873;28;20390;-64
2022/03/13 07:13:44;;;;;;;1.58;0.50;;;18.90;57.90;;;;;;5037150;28;20044;-64
2022/03/13 07:16:10;;;;;;;1.10;0.57;;;18.80;57.80;;;;;;5034096;28;20033;-64
2022/03/13 07:18:36;;;;;;;1.42;0.47;;;18.90;57.90;;;;;;5033644;28;20578;-64
2022/03/13 07:21:02;;;;;;;1.42;0.40;;;18.90;57.90;;;;;;5033661;28;20022;-64
2022/03/13 07:23:27;;;;;;;2.30;0.55;;;18.90;57.90;;;;;;5033252;28;20061;-64
2022/03/13 07:25:53;;;;;;;0.50;0.45;;;18.80;57.90;;;;;;5042290;28;20029;-63
2022/03/13 07:28:19;;;;;;;1.40;0.50;;;18.90;58.00;;;;;;5033525;28;20036;-63
2022/03/13 07:30:44;;;;;;;1.50;0.60;;;18.80;57.90;;;;;;5033625;28;20133;-64
2022/03/13 07:33:10;;;;;;;0.70;0.50;;;18.80;57.90;;;;;;5033073;28;20032;-64
2022/03/13 07:35:36;;;;;;;0.60;0.50;;;18.80;58.00;;;;;;5033808;28;20030;-64
2022/03/13 07:38:03;;;;;;;0.63;0.43;;;18.80;58.00;;;;;;5034224;28;20431;-64
2022/03/13 07:40:29;;;;;;;0.85;0.47;;;18.80;58.00;;;;;;5034177;28;20068;-64
2022/03/13 07:42:54;;;;;;;1.88;0.65;;;18.80;58.00;;;;;;5044023;28;20029;-64
2022/03/13 07:45:20;;;;;;;2.70;0.50;;;18.80;58.00;;;;;;5053979;28;20105;-64
2022/03/13 07:47:46;;;;;;;0.60;0.32;;;18.80;58.00;;;;;;5054047;28;20025;-64
2022/03/13 07:50:12;;;;;;;3.20;1.10;;;18.80;58.00;;;;;;5053831;28;20021;-63
2022/03/13 07:52:38;;;;;;;1.63;0.45;;;18.80;58.10;;;;;;5053871;28;20036;-64
2022/03/13 07:55:04;;;;;;;1.33;0.30;;;18.80;58.10;;;;;;5052375;28;20029;-63
2022/03/13 07:57:29;;;;;;;1.10;0.45;;;18.80;58.10;;;;;;5053725;28;20017;-63
2022/03/13 07:59:55;;;;;;;1.58;0.52;;;18.80;58.10;;;;;;5053782;28;20028;-63
2022/03/13 08:02:20;;;;;;;1.60;0.50;;;18.80;58.10;;;;;;5053796;28;20529;-63
2022/03/13 08:04:46;;;;;;;1.60;0.52;;;18.80;58.10;;;;;;5053392;28;20156;-64
2022/03/13 08:07:12;;;;;;;0.80;0.40;;;18.80;58.10;;;;;;5053733;28;20025;-63
2022/03/13 08:09:39;;;;;;;1.88;0.55;;;18.80;58.10;;;;;;5053565;28;20033;-64
2022/03/13 08:12:05;;;;;;;2.47;0.70;;;18.80;58.20;;;;;;5053470;28;20017;-64
2022/03/13 08:14:30;;;;;;;3.58;0.50;;;18.80;58.10;;;;;;5035326;28;20411;-64
2022/03/13 08:16:56;;;;;;;1.27;0.43;;;18.80;58.10;;;;;;5053413;28;20018;-63
2022/03/13 08:19:22;;;;;;;1.35;0.30;;;18.80;58.10;;;;;;5053202;28;20029;-63
2022/03/13 08:21:47;;;;;;;1.70;0.63;;;18.80;58.20;;;;;;5053237;28;20091;-64
2022/03/13 08:24:15;;;;;;;1.88;0.40;;;18.80;58.20;;;;;;5053079;28;20526;-64
2022/03/13 08:26:41;;;;;;;1.02;0.50;;;18.80;58.20;;;;;;5036652;28;20029;-64
2022/03/13 08:29:07;;;;;;;1.23;0.50;;;18.80;58.20;;;;;;5033531;28;20025;-64
2022/03/13 08:31:33;;;;;;;2.10;0.68;;;18.70;58.10;;;;;;5033379;28;20032;-63
2022/03/13 08:34:05;;;;;;;2.85;0.47;;;18.70;58.10;;;;;;5033019;28;20061;-64
2022/03/13 08:36:30;;;;;;;2.78;0.57;;;18.70;58.20;;;;;;5033039;28;20028;-64
2022/03/13 08:38:56;;;;;;;1.08;0.50;;;18.70;58.20;;;;;;5044104;28;20391;-64
2022/03/13 08:41:22;;;;;;;0.60;0.30;;;18.70;58.20;;;;;;5032478;28;20018;-64
2022/03/13 08:43:48;;;;;;;0.68;0.32;;;18.70;58.20;;;;;;5049326;28;20387;-64
2022/03/13 08:46:14;;;;;;;0.80;0.38;;;18.70;58.20;;;;;;5052371;28;20494;-64
2022/03/13 08:48:40;;;;;;;2.78;0.80;;;18.70;58.20;;;;;;5051120;28;20044;-64
2022/03/13 08:51:06;;;;;;;0.77;0.50;;;18.70;58.20;;;;;;5052318;28;20495;-64
2022/03/13 08:53:31;;;;;;;1.60;0.65;;;18.70;58.20;;;;;;5050824;28;20036;-63
2022/03/13 08:55:57;;;;;;;1.42;0.60;;;18.70;58.20;;;;;;5052125;28;20025;-64
2022/03/13 08:58:24;;;;;;;0.85;0.47;;;18.70;58.20;;;;;;5052164;28;20036;-63
2022/03/13 09:00:50;;;;;;;1.95;0.60;;;18.70;58.30;;;;;;5051804;28;20013;-64
2022/03/13 09:03:16;;;;;;;2.42;0.40;;;18.70;58.30;;;;;;5050775;28;20384;-64
2022/03/13 09:05:41;;;;;;;2.28;0.68;;;18.70;58.30;;;;;;5052056;28;20510;-64
2022/03/13 09:08:07;;;;;;;1.17;0.50;;;18.70;58.30;;;;;;5052024;28;20506;-64
2022/03/13 09:10:34;;;;;;;1.02;0.40;;;18.70;58.30;;;;;;5051846;28;20487;-64
2022/03/13 09:13:00;;;;;;;2.08;0.60;;;18.70;58.30;;;;;;5051667;28;20515;-64
2022/03/13 09:15:25;;;;;;;1.70;0.55;;;18.70;58.30;;;;;;5051532;28;20021;-64
2022/03/13 09:17:53;;;;;;;1.15;0.50;;;18.70;58.30;;;;;;5051752;28;20025;-64
2022/03/13 09:20:21;;;;;;;1.25;0.32;;;18.70;58.40;;;;;;5051656;28;20021;-64
2022/03/13 09:22:47;;;;;;;2.00;0.40;;;18.60;58.40;;;;;;5051196;28;20049;-64
2022/03/13 09:25:12;;;;;;;0.60;0.40;;;18.60;58.40;;;;;;5047157;28;20083;-64
2022/03/13 09:27:38;;;;;;;1.52;0.50;;;18.60;58.40;;;;;;5031590;28;20037;-64
2022/03/13 09:30:04;;;;;;;1.05;0.50;;;18.60;58.40;;;;;;5031363;28;20036;-64
2022/03/13 09:32:30;;;;;;;1.85;0.70;;;18.70;58.40;;;;;;5032086;28;20083;-64
2022/03/13 09:34:55;;;;;;;0.93;0.35;;;18.60;58.40;;;;;;5032115;28;20025;-64
2022/03/13 09:37:23;;;;;;;1.08;0.50;;;18.60;58.40;;;;;;5032122;28;20091;-64
2022/03/13 09:39:50;;;;;;;2.45;0.40;;;18.60;58.40;;;;;;5032370;28;20389;-64
2022/03/13 09:42:15;;;;;;;1.10;0.50;;;18.60;58.70;;;;;;5036876;28;20067;-64
2022/03/13 09:44:41;;;;;;;3.05;0.60;;;18.60;58.40;;;;;;5051879;28;20107;-64
2022/03/13 09:47:11;;;;;;;1.40;0.50;;;18.60;58.40;;;;;;5052159;28;20491;-64
2022/03/13 09:49:37;;;;;;;2.08;0.50;;;18.60;58.50;;;;;;5051822;28;20029;-64
2022/03/13 09:52:03;;;;;;;1.13;0.63;;;18.60;58.50;;;;;;5050943;28;20029;-64
2022/03/13 09:54:28;;;;;;;1.48;0.52;;;18.60;58.50;;;;;;5050853;28;20491;-64
2022/03/13 09:56:54;;;;;;;2.10;0.50;;;18.60;58.50;;;;;;5052142;28;20031;-64
2022/03/13 09:59:20;;;;;;;0.50;0.40;;;18.60;58.50;;;;;;5051780;28;20442;-64
2022/03/13 10:01:46;;;;;;;1.33;0.40;;;18.60;58.50;;;;;;5055483;28;20032;-64
2022/03/13 10:04:12;;;;;;;1.27;0.60;;;18.60;58.50;;;;;;5056086;28;20028;-64
2022/03/13 10:07:07;;;;;;;1.40;0.40;;;18.60;58.50;;;;;;5055956;28;20032;-64
2022/03/13 10:09:33;;;;;;;1.75;0.60;;;18.60;58.50;;;;;;5055965;28;20114;-63
2022/03/13 10:12:12;;;;;;;3.47;0.50;;;18.50;58.60;;;;;;5054575;28;20487;-65
2022/03/13 10:14:39;;;;;;;2.53;0.60;;;18.60;58.60;;;;;;5055340;28;20079;-66
2022/03/13 10:17:28;;;;;;;3.22;0.80;;;18.60;58.60;;;;;;5044968;28;20061;-66
2022/03/13 10:19:55;;;;;;;1.33;0.80;;;18.60;58.70;;;;;;5035645;28;20017;-68
2022/03/13 10:22:28;;;;;;;1.75;0.65;;;18.60;58.90;;;;;;5052922;28;20116;-67
2022/03/13 10:24:54;;;;;;;0.95;0.80;;;18.60;59.00;;;;;;5029575;28;21222;-68
2022/03/13 10:27:20;;;;;;;1.67;0.68;;;18.60;58.90;;;;;;5055691;28;20512;-68
2022/03/13 10:29:47;;;;;;;1.83;0.70;;;18.70;58.90;;;;;;5054090;28;20032;-68
2022/03/13 10:32:14;;;;;;;1.20;0.60;;;18.70;58.90;;;;;;5037860;28;20052;-67
2022/03/13 10:34:39;;;;;;;0.75;0.50;;;18.70;58.90;;;;;;5035771;28;20499;-67
2022/03/13 10:37:05;;;;;;;4.43;0.80;;;18.70;58.90;;;;;;5035364;28;20030;-67
2022/03/13 10:39:31;;;;;;;3.03;0.80;;;18.80;58.90;;;;;;5034184;28;20018;-68
2022/03/13 10:42:03;;;;;;;2.17;0.75;;;18.80;58.90;;;;;;5037399;28;20025;-67
2022/03/13 10:44:34;;;;;;;1.30;0.70;;;18.80;58.90;;;;;;5053945;28;20017;-67
2022/03/13 10:47:05;;;;;;;1.08;0.70;;;18.90;58.90;;;;;;5054009;28;20029;-67
2022/03/13 10:49:40;;;;;;;2.20;0.57;;;18.90;58.90;;;;;;5053738;28;20029;-68
2022/03/13 10:52:25;;;;;;;2.17;0.70;;;18.90;58.90;;;;;;5034034;28;20132;-67
2022/03/13 10:54:54;;;;;;;1.83;0.70;;;18.90;58.70;;;;;;5033906;28;20080;-67
2022/03/13 10:57:20;;;;;;;1.25;0.52;;;18.90;58.90;;;;;;5034938;28;20101;-69
2022/03/13 10:59:45;;;;;;;1.25;0.60;;;18.90;58.90;;;;;;5034982;28;20097;-69
2022/03/13 11:02:18;;;;;;;2.17;0.60;;;19.00;58.90;;;;;;5033827;28;20101;-69
2022/03/13 11:04:51;;;;;;;2.08;0.85;;;19.00;58.80;;;;;;5017289;28;20025;-69
2022/03/13 11:07:16;;;;;;;1.77;0.73;;;19.00;58.80;;;;;;5034866;28;20037;-69
2022/03/13 11:09:42;;;;;;;1.63;0.70;;;19.00;58.80;;;;;;5022505;28;20037;-68
2022/03/13 11:12:15;;;;;;;1.42;0.52;;;19.00;58.80;;;;;;5034455;28;20610;-67
2022/03/13 11:14:42;;;;;;;1.42;0.60;;;19.10;58.70;;;;;;5028753;28;20021;-68
2022/03/13 11:17:08;;;;;;;2.15;0.70;;;19.10;58.70;;;;;;5028861;28;20052;-68
2022/03/13 11:19:35;;;;;;;2.13;0.88;;;19.20;58.80;;;;;;5017075;28;20017;-68
2022/03/13 11:22:02;;;;;;;0.68;0.40;;;19.20;58.70;;;;;;5017070;28;20100;-69
2022/03/13 11:24:28;;;;;;;1.02;0.50;;;19.20;58.70;;;;;;5002159;28;20045;-70
2022/03/13 11:26:54;;;;;;;1.05;0.60;;;19.20;58.60;;;;;;5032831;28;20026;-69
2022/03/13 11:29:42;;;;;;;3.15;0.80;;;19.20;58.60;;;;;;5033166;28;20109;-69
2022/03/13 11:32:27;;;;;;;1.73;0.40;;;19.30;58.40;;;;;;5031258;28;20026;-69
2022/03/13 11:35:11;;;;;;;1.35;0.63;;;19.30;58.40;;;;;;5014454;28;20152;-69
2022/03/13 11:37:37;;;;;;;1.08;0.50;;;19.40;58.40;;;;;;5014369;28;20076;-69
2022/03/13 11:40:04;;;;;;;1.35;0.75;;;19.30;58.60;;;;;;4996786;28;20029;-69
2022/03/13 11:42:51;;;;;;;1.17;0.73;;;19.40;58.50;;;;;;5020902;28;20101;-67
2022/03/13 11:45:28;;;;;;;3.25;0.55;;;19.40;58.20;;;;;;5016752;28;20361;-67
2022/03/13 11:47:55;;;;;;;1.05;0.55;;;19.40;58.40;;;;;;5033997;28;20074;-67
2022/03/13 11:50:25;;;;;;;1.02;0.55;;;19.40;58.40;;;;;;5033013;28;20030;-67
2022/03/13 11:53:02;;;;;;;1.27;0.57;;;19.50;58.50;;;;;;5032960;28;20033;-67
2022/03/13 11:55:28;;;;;;;0.75;0.50;;;19.50;58.40;;;;;;5018165;28;20053;-69
2022/03/13 11:58:00;;;;;;;0.95;0.50;;;19.50;58.40;;;;;;5023649;28;20464;-69
2022/03/13 12:00:30;;;;;;;0.65;0.45;;;19.50;58.30;;;;;;5034576;28;20052;-67
2022/03/13 12:03:08;;;;;;;0.88;0.60;;;19.50;58.30;;;;;;5034222;28;20544;-67
2022/03/13 12:05:34;;;;;;;0.65;0.40;;;19.60;58.20;;;;;;5016581;28;20025;-67
2022/03/13 12:08:08;;;;;;;0.60;0.43;;;19.60;58.30;;;;;;5028347;28;20033;-67
2022/03/13 12:10:45;;;;;;;1.38;0.70;;;19.60;58.20;;;;;;4997234;28;20022;-67
2022/03/13 12:13:12;;;;;;;0.50;0.40;;;19.60;58.20;;;;;;5018877;28;20026;-67
2022/03/13 12:15:39;;;;;;;0.65;0.43;;;19.60;58.20;;;;;;4997019;28;20129;-67
2022/03/13 12:18:32;;;;;;;0.90;0.55;;;19.70;58.20;;;;;;5008801;28;20030;-67
2022/03/13 12:21:10;;;;;;;;;;;19.70;58.00;;;;;;5019099;28;20067;-67
2022/03/13 12:23:36;;;;;;;0.93;0.43;;;19.60;57.80;;;;;;5015768;28;19917;-67
2022/03/13 12:26:18;;;;;;;2.33;0.95;;;19.60;58.40;;;;;;5032404;28;20478;-67
2022/03/13 12:28:44;;;;;;;2.33;0.57;;;19.70;58.10;;;;;;5032845;28;20079;-67
2022/03/13 12:31:10;;;;;;;1.05;0.50;;;19.70;58.30;;;;;;5033907;28;20025;-67
2022/03/13 12:33:37;;;;;;;1.77;0.60;;;19.70;58.10;;;;;;5032527;28;20091;-67
2022/03/13 12:36:03;;;;;;;0.70;0.40;;;19.70;58.10;;;;;;5033786;28;20017;-67
2022/03/13 12:38:30;;;;;;;0.98;0.50;;;19.70;58.00;;;;;;5033707;28;20120;-73
2022/03/13 12:40:58;;;;;;;1.40;0.35;;;19.80;58.00;;;;;;5006929;28;20092;-66
2022/03/13 12:43:25;;;;;;;0.75;0.40;;;19.80;58.00;;;;;;5027737;28;20021;-65
2022/03/13 12:45:51;;;;;;;1.95;0.60;;;19.80;57.90;;;;;;5032381;28;20060;-65
2022/03/13 12:48:17;;;;;;;0.52;0.50;;;19.80;57.80;;;;;;5032381;28;20026;-66